Time;durP1;ratioP1;P1;durP2;ratioP2;P2;SDS_P1;SDS_P2;PMS_P1;PMS_P2;Temp;Humidity;BMP_temperature;BMP_pressure;BME280_temperature;BME280_humidity;BME280_pressure;Samples;Min_cycle;Max_cycle;Signal;HPM_P1;HPM_P2
2022/03/04 00:00:52;;;;;;;;;;;1.30;68.40;;;;;;4995351;28;19910;-74
2022/03/04 00:03:19;;;;;;;;;;;1.30;67.50;;;;;;4995132;28;19918;-75
2022/03/04 00:05:44;;;;;;;;;;;1.40;66.90;;;;;;4994742;28;19996;-74
2022/03/04 00:08:10;;;;;;;;;;;1.40;66.00;;;;;;4995297;28;19914;-75
2022/03/04 00:10:36;;;;;;;;;;;1.70;65.50;;;;;;4995096;28;20325;-74
2022/03/04 00:13:02;;;;;;;;;;;1.80;64.80;;;;;;4993743;28;20302;-75
2022/03/04 00:15:28;;;;;;;;;;;1.80;64.20;;;;;;4961201;28;19914;-75
2022/03/04 00:17:53;;;;;;;;;;;1.40;64.90;;;;;;4994918;28;19920;-75
2022/03/04 00:20:19;;;;;;;;;;;1.30;65.70;;;;;;4977750;28;19997;-74
2022/03/04 00:22:45;;;;;;;;;;;1.10;66.40;;;;;;4994892;28;19909;-74
2022/03/04 00:25:10;;;;;;;;;;;1.00;67.40;;;;;;4994723;28;19910;-74
2022/03/04 00:27:36;;;;;;;;;;;1.10;67.40;;;;;;4994633;28;19909;-74
2022/03/04 00:30:02;;;;;;;;;;;1.20;67.30;;;;;;4994753;28;19909;-75
2022/03/04 00:32:28;;;;;;;;;;;1.30;66.70;;;;;;4994674;28;19917;-75
2022/03/04 00:34:54;;;;;;;;;;;1.50;66.50;;;;;;4993295;28;20315;-74
2022/03/04 00:37:19;;;;;;;;;;;1.60;65.80;;;;;;4976964;28;20342;-74
2022/03/04 00:39:45;;;;;;;;;;;1.50;65.80;;;;;;4993441;28;20007;-75
2022/03/04 00:42:11;;;;;;;;;;;1.40;65.90;;;;;;4994472;28;19917;-75
2022/03/04 00:44:36;;;;;;;;;;;1.20;65.90;;;;;;4994444;28;19910;-74
2022/03/04 00:47:04;;;;;;;;;;;1.20;66.30;;;;;;4976826;28;20334;-76
2022/03/04 00:49:29;;;;;;;;;;;1.10;66.60;;;;;;4994364;28;19937;-74
2022/03/04 00:51:55;;;;;;;;;;;0.90;67.00;;;;;;4994371;28;19910;-74
2022/03/04 00:54:20;;;;;;;;;;;0.70;67.50;;;;;;4993040;28;19914;-75
2022/03/04 00:56:46;;;;;;;;;;;0.50;68.50;;;;;;4992713;28;20357;-74
2022/03/04 00:59:12;;;;;;;;;;;0.50;69.60;;;;;;4976799;28;19910;-74
2022/03/04 01:01:37;;;;;;;;;;;0.50;69.30;;;;;;4994093;28;19917;-74
2022/03/04 01:04:03;;;;;;;;;;;0.50;69.50;;;;;;4994070;28;19914;-75
2022/03/04 01:06:29;;;;;;;;;;;0.40;69.70;;;;;;4976152;28;19910;-75
2022/03/04 01:08:54;;;;;;;;;;;0.30;70.60;;;;;;4993923;28;19921;-76
2022/03/04 01:11:20;;;;;;;;;;;0.10;71.10;;;;;;4994054;28;19909;-74
2022/03/04 01:13:46;;;;;;;;;;;0.30;70.50;;;;;;4993857;28;20277;-74
2022/03/04 01:16:11;;;;;;;;;;;0.40;69.20;;;;;;4993646;28;19921;-75
2022/03/04 01:18:37;;;;;;;;;;;0.60;68.80;;;;;;4993872;28;19917;-75
2022/03/04 01:21:03;;;;;;;;;;;0.70;68.40;;;;;;4993845;28;19913;-77
2022/03/04 01:23:28;;;;;;;;;;;0.60;68.00;;;;;;4993463;28;20000;-74
2022/03/04 01:25:56;;;;;;;;;;;0.50;68.50;;;;;;4993339;28;19910;-74
2022/03/04 01:28:22;;;;;;;;;;;0.30;69.10;;;;;;4993693;28;20477;-74
2022/03/04 01:30:48;;;;;;;;;;;0.10;70.10;;;;;;4993610;28;19909;-74
2022/03/04 01:33:14;;;;;;;;;;;0.00;70.90;;;;;;4993538;28;19913;-74
2022/03/04 01:35:40;;;;;;;;;;;0.00;70.90;;;;;;4993290;28;19920;-74
2022/03/04 01:38:06;;;;;;;;;;;-0.10;71.30;;;;;;4993550;28;19916;-75
2022/03/04 01:40:32;;;;;;;;;;;-0.10;71.90;;;;;;4993547;28;20000;-75
2022/03/04 01:42:57;;;;;;;;;;;-0.20;72.20;;;;;;4993528;28;19910;-74
2022/03/04 01:45:23;;;;;;;;;;;-0.30;72.20;;;;;;4993542;28;19913;-74
2022/03/04 01:47:49;;;;;;;;;;;-0.30;72.80;;;;;;4975978;28;20048;-74
2022/03/04 01:50:14;;;;;;;;;;;-0.40;72.70;;;;;;4993475;28;19910;-74
2022/03/04 01:52:40;;;;;;;;;;;-0.30;72.80;;;;;;4993349;28;20476;-75
2022/03/04 01:55:06;;;;;;;;;;;-0.10;72.30;;;;;;4993230;28;19910;-74
2022/03/04 01:57:32;;;;;;;;;;;0.10;71.60;;;;;;4975707;28;19917;-74
2022/03/04 01:59:57;;;;;;;;;;;0.20;70.10;;;;;;4993305;28;19917;-74
2022/03/04 02:02:23;;;;;;;;;;;0.20;69.20;;;;;;4975780;28;19921;-75
2022/03/04 02:04:50;;;;;;;;;;;0.20;69.00;;;;;;4992829;28;19914;-74
2022/03/04 02:07:15;;;;;;;;;;;0.40;68.50;;;;;;4975653;28;19914;-74
2022/03/04 02:09:41;;;;;;;;;;;0.60;68.20;;;;;;4975838;28;19920;-74
2022/03/04 02:12:07;;;;;;;;;;;0.60;68.00;;;;;;4991832;28;19917;-75
2022/03/04 02:14:32;;;;;;;;;;;0.60;68.20;;;;;;4959616;28;19910;-75
2022/03/04 02:16:58;;;;;;;;;;;0.80;68.40;;;;;;4993004;28;20285;-74
2022/03/04 02:19:23;;;;;;;;;;;0.90;67.20;;;;;;4991903;28;19920;-75
2022/03/04 02:21:54;;;;;;;;;;;1.00;66.70;;;;;;4975719;28;19917;-74
2022/03/04 02:24:22;;;;;;;;;;;0.90;66.30;;;;;;4993050;28;19917;-74
2022/03/04 02:26:48;;;;;;;;;;;0.70;66.50;;;;;;4992871;28;19975;-74
2022/03/04 02:29:14;;;;;;;;;;;0.50;67.80;;;;;;4992993;28;20289;-74
2022/03/04 02:31:40;;;;;;;;;;;0.40;67.90;;;;;;4975636;28;19917;-75
2022/03/04 02:34:05;;;;;;;;;;;0.30;68.40;;;;;;4975546;28;20388;-75
2022/03/04 02:36:32;;;;;;;;;;;0.20;68.80;;;;;;4976601;28;19913;-75
2022/03/04 02:38:57;;;;;;;;;;;0.10;69.00;;;;;;4979394;28;19909;-74
2022/03/04 02:41:23;;;;;;;;;;;0.00;69.60;;;;;;4979325;28;20341;-74
2022/03/04 02:43:48;;;;;;;;;;;0.00;69.80;;;;;;4996713;28;19917;-75
2022/03/04 02:46:14;;;;;;;;;;;0.40;69.20;;;;;;4995235;28;20332;-74
2022/03/04 02:48:40;;;;;;;;;;;0.50;67.60;;;;;;4996590;28;20404;-75
2022/03/04 02:51:06;;;;;;;;;;;0.30;67.60;;;;;;4996554;28;19910;-74
2022/03/04 02:53:32;;;;;;;;;;;0.00;68.00;;;;;;4979099;28;19910;-75
2022/03/04 02:55:58;;;;;;;;;;;-0.40;70.00;;;;;;4996262;28;20297;-74
2022/03/04 02:58:23;;;;;;;;;;;-0.60;71.80;;;;;;4996462;28;20377;-76
2022/03/04 03:00:49;;;;;;;;;;;-0.70;72.90;;;;;;4996513;28;19989;-74
2022/03/04 03:03:15;;;;;;;;;;;-0.70;72.90;;;;;;4978692;28;20351;-74
2022/03/04 03:05:40;;;;;;;;;;;-0.70;72.70;;;;;;4995813;28;19910;-75
2022/03/04 03:08:06;;;;;;;;;;;-0.80;72.40;;;;;;4995069;28;20289;-75
2022/03/04 03:10:33;;;;;;;;;;;-0.80;73.00;;;;;;4996225;28;19968;-75
2022/03/04 03:12:59;;;;;;;;;;;-0.70;72.70;;;;;;4996140;28;20362;-74
2022/03/04 03:15:25;;;;;;;;;;;-0.70;72.70;;;;;;4978505;28;19917;-75
2022/03/04 03:17:51;;;;;;;;;;;-0.70;72.90;;;;;;4996026;28;20441;-74
2022/03/04 03:20:17;;;;;;;;;;;-0.60;72.30;;;;;;4996017;28;19917;-74
2022/03/04 03:22:42;;;;;;;;;;;-0.70;71.30;;;;;;4996026;28;19910;-74
2022/03/04 03:25:08;;;;;;;;;;;-0.90;71.90;;;;;;4995816;28;19917;-76
2022/03/04 03:27:34;;;;;;;;;;;-0.80;72.20;;;;;;4978283;28;20293;-74
2022/03/04 03:29:59;;;;;;;;;;;-0.80;72.10;;;;;;4995935;28;19964;-74
2022/03/04 03:32:25;;;;;;;;;;;-0.70;72.10;;;;;;4995883;28;19910;-74
2022/03/04 03:34:51;;;;;;;;;;;-0.70;71.70;;;;;;4995731;28;20286;-74
2022/03/04 03:37:17;;;;;;;;;;;-0.80;72.10;;;;;;4995560;28;19910;-75
2022/03/04 03:39:42;;;;;;;;;;;-0.70;71.90;;;;;;4995756;28;19910;-76
2022/03/04 03:42:08;;;;;;;;;;;-0.60;71.90;;;;;;4962185;28;19910;-75
2022/03/04 03:44:34;;;;;;;;;;;-0.60;71.80;;;;;;4995686;28;19920;-75
2022/03/04 03:47:00;;;;;;;;;;;-0.60;72.20;;;;;;4994971;28;19909;-74
2022/03/04 03:49:26;;;;;;;;;;;-0.60;71.50;;;;;;4995452;28;19956;-76
2022/03/04 03:51:51;;;;;;;;;;;-0.60;71.10;;;;;;4995558;28;19916;-75
2022/03/04 03:54:17;;;;;;;;;;;-0.40;71.20;;;;;;4995370;28;20376;-75
2022/03/04 03:56:43;;;;;;;;;;;-0.30;70.40;;;;;;4995151;28;20448;-74
2022/03/04 03:59:08;;;;;;;;;;;-0.30;70.30;;;;;;4995351;28;19910;-75
2022/03/04 04:03:59;;;;;;;;;;;-0.40;70.50;;;;;;5075494;23;20399;-90
2022/03/04 04:06:25;;;;;;;;;;;-0.50;70.40;;;;;;5033899;28;20000;-88
2022/03/04 04:08:51;;;;;;;;;;;-0.50;70.50;;;;;;5033680;28;20014;-90
2022/03/04 04:11:17;;;;;;;;;;;-0.40;70.30;;;;;;5050681;28;19913;-90
2022/03/04 04:13:45;;;;;;;;;;;-0.10;70.50;;;;;;5033100;28;20314;-90
2022/03/04 04:16:11;;;;;;;;;;;0.00;69.30;;;;;;5033339;28;19932;-90
2022/03/04 04:18:36;;;;;;;;;;;-0.20;69.30;;;;;;5033449;28;19916;-90
2022/03/04 04:21:02;;;;;;;;;;;-0.40;70.10;;;;;;5033720;28;20377;-89
2022/03/04 04:23:31;;;;;;;;;;;-0.30;69.90;;;;;;5001219;28;20429;-90
2022/03/04 04:25:57;;;;;;;;;;;-0.30;70.00;;;;;;5033344;28;19994;-90
2022/03/04 04:28:25;;;;;;;;;;;-0.20;69.90;;;;;;5033778;28;19909;-89
2022/03/04 04:30:51;;;;;;;;;;;-0.10;69.90;;;;;;5033293;28;19913;-90
2022/03/04 04:33:17;;;;;;;;;;;0.00;69.70;;;;;;5000191;28;20000;-89
2022/03/04 04:35:42;;;;;;;;;;;0.00;69.10;;;;;;5033051;28;20281;-90
2022/03/04 04:38:08;;;;;;;;;;;0.10;69.40;;;;;;5033601;28;19991;-90
2022/03/04 04:40:37;;;;;;;;;;;0.30;68.10;;;;;;5000469;28;20011;-90
2022/03/04 04:43:03;;;;;;;;;;;0.20;68.30;;;;;;5033461;28;19965;-89
2022/03/04 04:45:29;;;;;;;;;;;0.00;68.40;;;;;;5033274;28;19948;-89
2022/03/04 04:47:54;;;;;;;;;;;-0.20;69.30;;;;;;5033052;28;19909;-88
2022/03/04 04:50:20;;;;;;;;;;;-0.60;69.60;;;;;;5032961;28;19932;-90
2022/03/04 04:52:46;;;;;;;;;;;-0.50;70.50;;;;;;5032751;28;19913;-90
2022/03/04 04:55:11;;;;;;;;;;;-0.30;70.60;;;;;;5016602;28;19909;-89
2022/03/04 04:57:37;;;;;;;;;;;-0.40;70.10;;;;;;5016780;28;20366;-90
2022/03/04 05:00:05;;;;;;;;;;;-0.40;70.40;;;;;;5032008;28;20490;-89
2022/03/04 05:02:31;;;;;;;;;;;-0.30;70.70;;;;;;5033084;28;19917;-90
2022/03/04 05:04:57;;;;;;;;;;;-0.30;69.50;;;;;;5000082;28;19916;-90
2022/03/04 05:07:22;;;;;;;;;;;-0.50;70.30;;;;;;5032201;28;19996;-90
2022/03/04 05:09:48;;;;;;;;;;;-0.40;70.40;;;;;;5032769;28;20011;-89
2022/03/04 05:12:14;;;;;;;;;;;-0.40;70.10;;;;;;5016113;28;19913;-90
2022/03/04 05:14:39;;;;;;;;;;;-1.00;70.80;;;;;;5032707;28;19909;-90
2022/03/04 05:17:05;;;;;;;;;;;-1.30;72.20;;;;;;5032187;28;19964;-89
2022/03/04 05:19:31;;;;;;;;;;;-1.50;73.60;;;;;;5016165;28;19909;-89
2022/03/04 05:21:57;;;;;;;;;;;-1.70;73.80;;;;;;5016212;28;19916;-90
2022/03/04 05:24:22;;;;;;;;;;;-1.80;74.70;;;;;;5016101;28;19933;-89
2022/03/04 05:26:51;;;;;;;;;;;-1.90;75.00;;;;;;5032528;28;19913;-91
2022/03/04 05:29:16;;;;;;;;;;;-2.00;76.00;;;;;;5016203;28;19932;-91
2022/03/04 05:31:43;;;;;;;;;;;-2.10;76.50;;;;;;4999562;28;19916;-90
2022/03/04 05:34:09;;;;;;;;;;;-2.00;77.20;;;;;;4999519;28;19909;-89
2022/03/04 05:36:35;;;;;;;;;;;-1.90;76.60;;;;;;4999096;28;20367;-90
2022/03/04 05:39:01;;;;;;;;;;;-1.70;76.40;;;;;;4999758;28;19913;-89
2022/03/04 05:41:26;;;;;;;;;;;-1.70;75.80;;;;;;5032198;28;19917;-90
2022/03/04 05:43:55;;;;;;;;;;;-1.70;75.60;;;;;;5032183;28;19909;-90
2022/03/04 05:46:20;;;;;;;;;;;-1.50;75.20;;;;;;5015505;28;19913;-90
2022/03/04 05:48:46;;;;;;;;;;;-1.60;75.10;;;;;;5015912;28;19909;-88
2022/03/04 05:51:12;;;;;;;;;;;-1.50;75.30;;;;;;5034108;28;19986;-90
2022/03/04 05:53:37;;;;;;;;;;;-1.40;74.90;;;;;;4999396;28;19913;-89
2022/03/04 05:56:04;;;;;;;;;;;-1.30;75.00;;;;;;5031996;28;20405;-90
2022/03/04 05:58:30;;;;;;;;;;;-1.30;74.40;;;;;;4999958;28;19915;-91
2022/03/04 06:00:59;;;;;;;;;;;-1.30;74.70;;;;;;5000096;28;19909;-90
2022/03/04 06:03:45;;;;;;;;;;;-1.40;74.50;;;;;;4999039;28;19967;-90
2022/03/04 06:06:52;;;;;;;;;;;-1.30;74.60;;;;;;4998528;28;20008;-90
2022/03/04 06:09:31;;;;;;;;;;;-1.20;74.50;;;;;;5017268;28;20004;-90
2022/03/04 06:12:11;;;;;;;;;;;-1.00;73.60;;;;;;5002821;28;19909;-90
2022/03/04 06:14:40;;;;;;;;;;;-1.10;73.00;;;;;;5036608;28;19917;-90
2022/03/04 06:17:19;;;;;;;;;;;-0.90;73.40;;;;;;5015726;28;19913;-89
2022/03/04 06:23:14;;;;;;;;;;;-0.80;73.10;;;;;;5019451;28;19956;-91
2022/03/04 06:25:40;;;;;;;;;;;-0.70;72.90;;;;;;5003212;28;19999;-90
2022/03/04 06:28:11;;;;;;;;;;;-0.60;72.80;;;;;;5003018;28;19916;-92
2022/03/04 06:30:49;;;;;;;;;;;-0.60;73.90;;;;;;5037082;28;20028;-91
2022/03/04 06:33:30;;;;;;;;;;;-0.70;73.00;;;;;;5002890;28;20012;-91
2022/03/04 06:35:58;;;;;;;;;;;-0.70;73.20;;;;;;5003461;28;20294;-90
2022/03/04 06:38:33;;;;;;;;;;;-0.70;73.30;;;;;;5002679;28;19910;-91
2022/03/04 06:41:21;;;;;;;;;;;-0.70;73.50;;;;;;5009749;28;19958;-90
2022/03/04 06:43:59;;;;;;;;;;;-0.90;74.40;;;;;;5026125;28;19936;-90
2022/03/04 06:46:55;;;;;;;;;;;-1.00;75.40;;;;;;5009788;28;20008;-90
2022/03/04 06:49:29;;;;;;;;;;;-1.10;75.80;;;;;;5041383;28;19909;-89
2022/03/04 06:52:04;;;;;;;;;;;-1.10;76.90;;;;;;5027636;28;20275;-89
2022/03/04 06:54:48;;;;;;;;;;;-1.00;77.90;;;;;;5002889;28;19962;-90
2022/03/04 06:57:14;;;;;;;;;;;-0.80;77.10;;;;;;5012267;28;20390;-89
2022/03/04 06:59:50;;;;;;;;;;;-0.50;76.60;;;;;;5047857;28;19909;-91
2022/03/04 07:02:37;;;;;;;;;;;-0.20;74.70;;;;;;5021122;28;19920;-91
2022/03/04 07:05:07;;;;;;;;;;;0.00;73.80;;;;;;5003132;28;19963;-91
2022/03/04 07:07:32;;;;;;;;;;;0.00;74.20;;;;;;5052275;28;19909;-91
2022/03/04 07:09:58;;;;;;;;;;;-0.20;74.90;;;;;;5036699;28;19916;-90
2022/03/04 07:12:26;;;;;;;;;;;-0.40;76.40;;;;;;5043131;28;19924;-91
2022/03/04 07:15:07;;;;;;;;;;;-0.20;76.10;;;;;;5010608;28;19913;-91
2022/03/04 07:17:35;;;;;;;;;;;0.10;75.60;;;;;;5042134;28;19955;-91
2022/03/04 07:20:30;;;;;;;;;;;0.40;73.50;;;;;;5026907;28;19916;-89
2022/03/04 07:23:05;;;;;;;;;;;0.60;72.90;;;;;;5012782;28;19917;-91
2022/03/04 07:25:43;;;;;;;;;;;0.90;72.10;;;;;;5004184;28;19909;-90
2022/03/04 07:28:11;;;;;;;;;;;1.10;71.40;;;;;;5030772;28;19909;-91
2022/03/04 07:30:47;;;;;;;;;;;1.20;71.30;;;;;;5061359;28;19959;-90
2022/03/04 07:33:13;;;;;;;;;;;1.20;70.90;;;;;;5064079;28;19961;-90
2022/03/04 07:35:49;;;;;;;;;;;1.30;70.40;;;;;;5060873;28;19917;-91
2022/03/04 07:38:15;;;;;;;;;;;1.20;69.40;;;;;;5025865;28;19963;-90
2022/03/04 07:41:12;;;;;;;;;;;1.20;69.40;;;;;;5060077;28;19912;-91
2022/03/04 07:43:41;;;;;;;;;;;1.30;70.10;;;;;;5025936;28;20380;-91
2022/03/04 07:46:08;;;;;;;;;;;1.50;68.80;;;;;;5003196;28;20351;-88
2022/03/04 07:48:33;;;;;;;;;;;1.20;68.50;;;;;;5003171;28;19916;-89
2022/03/04 07:50:59;;;;;;;;;;;1.20;68.50;;;;;;5037367;28;20363;-86
2022/03/04 07:53:25;;;;;;;;;;;1.10;68.50;;;;;;5031791;23;19924;-72
2022/03/04 07:55:50;;;;;;;;;;;1.00;68.60;;;;;;5053476;28;19920;-72
2022/03/04 07:58:16;;;;;;;;;;;1.10;67.40;;;;;;5037671;28;19996;-73
2022/03/04 08:00:41;;;;;;;;;;;1.20;68.10;;;;;;5054756;28;19908;-71
2022/03/04 08:03:07;;;;;;;;;;;1.40;67.10;;;;;;5054815;28;19908;-72
2022/03/04 08:05:33;;;;;;;;;;;1.70;66.10;;;;;;5053311;28;19909;-72
2022/03/04 08:07:59;;;;;;;;;;;1.80;66.40;;;;;;5053972;28;19909;-73
2022/03/04 08:10:25;;;;;;;;;;;1.80;64.80;;;;;;5054782;28;20368;-72
2022/03/04 08:12:51;;;;;;;;;;;1.60;65.20;;;;;;5054273;28;19909;-72
2022/03/04 08:15:16;;;;;;;;;;;1.60;65.50;;;;;;5054561;28;20376;-72
2022/03/04 08:17:44;;;;;;;;;;;1.70;63.70;;;;;;5055010;28;19940;-73
2022/03/04 08:20:10;;;;;;;;;;;1.50;63.70;;;;;;5054436;28;19908;-74
2022/03/04 08:22:35;;;;;;;;;;;1.40;64.90;;;;;;5053644;28;20386;-74
2022/03/04 08:25:01;;;;;;;;;;;1.50;65.00;;;;;;5053734;28;20361;-73
2022/03/04 08:27:27;;;;;;;;;;;1.70;64.10;;;;;;5053326;28;19912;-73
2022/03/04 08:29:52;;;;;;;;;;;1.70;63.70;;;;;;5053360;28;19916;-73
2022/03/04 08:32:22;;;;;;;;;;;1.60;64.80;;;;;;5052514;28;20008;-72
2022/03/04 08:34:48;;;;;;;;;;;1.70;65.10;;;;;;5052887;28;19935;-73
2022/03/04 08:37:13;;;;;;;;;;;2.00;64.60;;;;;;5052101;28;19912;-72
2022/03/04 08:39:39;;;;;;;;;;;2.20;64.40;;;;;;5052114;28;19909;-73
2022/03/04 08:42:04;;;;;;;;;;;2.40;63.90;;;;;;5052534;28;19924;-73
2022/03/04 08:44:30;;;;;;;;;;;2.30;63.60;;;;;;5051852;28;19937;-73
2022/03/04 08:46:56;;;;;;;;;;;2.40;63.10;;;;;;5050568;28;20684;-73
2022/03/04 08:49:21;;;;;;;;;;;2.50;62.70;;;;;;5052703;28;19909;-73
2022/03/04 08:51:47;;;;;;;;;;;2.50;62.40;;;;;;5035034;28;19912;-73
2022/03/04 08:54:13;;;;;;;;;;;2.60;62.20;;;;;;5052101;28;20283;-73
2022/03/04 08:56:38;;;;;;;;;;;2.80;62.50;;;;;;5054433;28;19913;-73
2022/03/04 08:59:04;;;;;;;;;;;2.90;61.70;;;;;;5054130;28;19909;-73
2022/03/04 09:01:29;;;;;;;;;;;2.90;61.00;;;;;;5052562;28;19908;-72
2022/03/04 09:03:56;;;;;;;;;;;2.70;59.90;;;;;;5048553;28;19910;-71
2022/03/04 09:06:21;;;;;;;;;;;2.70;60.20;;;;;;5033954;28;19963;-72
2022/03/04 09:08:47;;;;;;;;;;;2.80;60.90;;;;;;5047126;28;19939;-72
2022/03/04 09:11:13;;;;;;;;;;;2.90;61.00;;;;;;5054016;28;20387;-73
2022/03/04 09:13:38;;;;;;;;;;;3.10;61.20;;;;;;5053088;28;19909;-72
2022/03/04 09:16:04;;;;;;;;;;;3.20;59.60;;;;;;5051516;28;20305;-72
2022/03/04 09:18:30;;;;;;;;;;;3.30;58.90;;;;;;5050859;28;20284;-72
2022/03/04 09:20:56;;;;;;;;;;;3.10;58.30;;;;;;5052191;28;19916;-72
2022/03/04 09:23:22;;;;;;;;;;;3.20;58.80;;;;;;5052084;28;19916;-72
2022/03/04 09:25:48;;;;;;;;;;;3.40;58.30;;;;;;5049656;28;19909;-72
2022/03/04 09:28:14;;;;;;;;;;;3.40;57.90;;;;;;5052271;28;19963;-72
2022/03/04 09:30:40;;;;;;;;;;;3.60;57.60;;;;;;5051327;28;20327;-72
2022/03/04 09:33:06;;;;;;;;;;;4.10;56.90;;;;;;5052353;28;19992;-72
2022/03/04 09:35:32;;;;;;;;;;;4.50;56.20;;;;;;5053556;28;19912;-70
2022/03/04 09:37:57;;;;;;;;;;;4.70;55.30;;;;;;5054359;28;20284;-72
2022/03/04 09:40:23;;;;;;;;;;;5.00;55.10;;;;;;5052870;28;19939;-72
2022/03/04 09:42:49;;;;;;;;;;;5.30;54.60;;;;;;5052953;28;19908;-72
2022/03/04 09:45:14;;;;;;;;;;;5.80;54.40;;;;;;5052171;28;19963;-72
2022/03/04 09:47:40;;;;;;;;;;;6.20;52.00;;;;;;5051577;28;20007;-73
2022/03/04 09:50:06;;;;;;;;;;;6.40;50.50;;;;;;5054190;28;19999;-74
2022/03/04 09:52:32;;;;;;;;;;;6.20;50.90;;;;;;5051424;28;19966;-73
2022/03/04 09:54:58;;;;;;;;;;;6.50;50.70;;;;;;5051811;28;19909;-74
2022/03/04 09:57:24;;;;;;;;;;;6.60;50.00;;;;;;5051325;28;19913;-74
2022/03/04 09:59:50;;;;;;;;;;;7.20;49.60;;;;;;5051979;28;20184;-74
2022/03/04 10:02:16;;;;;;;;;;;7.60;48.80;;;;;;5048316;28;19909;-73
2022/03/04 10:04:41;;;;;;;;;;;7.60;48.50;;;;;;5050901;28;19909;-75
2022/03/04 10:07:08;;;;;;;;;;;7.90;48.00;;;;;;5051741;28;19909;-74
2022/03/04 10:09:37;;;;;;;;;;;8.20;46.80;;;;;;5052542;28;20275;-75
2022/03/04 10:12:04;;;;;;;;;;;8.30;46.60;;;;;;5052966;28;19913;-73
2022/03/04 10:14:29;;;;;;;;;;;8.50;46.40;;;;;;5052055;28;19915;-75
2022/03/04 10:16:56;;;;;;;;;;;8.80;46.40;;;;;;5034951;28;19916;-74
2022/03/04 10:19:23;;;;;;;;;;;8.90;45.40;;;;;;5052261;28;19909;-74
2022/03/04 10:21:49;;;;;;;;;;;8.70;45.50;;;;;;5044360;28;19945;-74
2022/03/04 10:24:16;;;;;;;;;;;9.30;45.00;;;;;;5051741;28;19916;-72
2022/03/04 10:26:41;;;;;;;;;;;9.40;44.00;;;;;;5052192;28;19978;-73
2022/03/04 10:29:18;;;;;;;;;;;9.50;44.20;;;;;;5051986;28;20427;-73
2022/03/04 10:32:02;;;;;;;;;;;9.90;43.80;;;;;;5051700;28;20315;-73
2022/03/04 10:34:27;;;;;;;;;;;10.10;43.80;;;;;;5051794;28;19913;-73
2022/03/04 10:36:55;;;;;;;;;;;9.90;43.00;;;;;;5051858;28;19936;-73
2022/03/04 10:39:21;;;;;;;;;;;10.20;43.30;;;;;;5030867;28;20597;-73
2022/03/04 10:41:50;;;;;;;;;;;10.30;42.90;;;;;;5050770;28;19944;-73
2022/03/04 10:44:26;;;;;;;;;;;10.70;42.20;;;;;;5051461;28;19975;-73
2022/03/04 10:46:55;;;;;;;;;;;10.90;41.80;;;;;;5051764;28;19940;-73
2022/03/04 10:49:24;;;;;;;;;;;10.80;41.10;;;;;;5046180;28;19920;-73
2022/03/04 10:51:50;;;;;;;;;;;10.80;41.20;;;;;;5050417;28;20356;-72
2022/03/04 10:54:17;;;;;;;;;;;10.60;40.60;;;;;;5049996;28;19955;-73
2022/03/04 10:56:48;;;;;;;;;;;10.90;41.10;;;;;;5051612;28;19920;-74
2022/03/04 10:59:14;;;;;;;;;;;10.50;41.20;;;;;;5056129;28;19916;-75
2022/03/04 11:01:45;;;;;;;;;;;10.90;40.70;;;;;;5056168;28;19909;-72
2022/03/04 11:04:11;;;;;;;;;;;11.30;40.40;;;;;;5052195;28;19917;-72
2022/03/04 11:06:38;;;;;;;;;;;11.70;39.00;;;;;;5053402;28;19909;-73
2022/03/04 11:09:04;;;;;;;;;;;11.80;38.90;;;;;;5054449;28;19908;-72
2022/03/04 11:11:30;;;;;;;;;;;11.70;38.50;;;;;;5054352;28;20434;-72
2022/03/04 11:13:59;;;;;;;;;;;12.00;37.60;;;;;;5055291;28;20352;-72
2022/03/04 11:16:25;;;;;;;;;;;12.00;37.40;;;;;;5052758;28;19913;-72
2022/03/04 11:18:51;;;;;;;;;;;12.10;37.00;;;;;;5054177;28;19916;-72
2022/03/04 11:21:17;;;;;;;;;;;11.70;38.10;;;;;;5054967;28;19962;-72
2022/03/04 11:23:45;;;;;;;;;;;12.00;38.60;;;;;;5055106;28;20387;-73
2022/03/04 11:26:17;;;;;;;;;;;12.10;37.80;;;;;;5054777;28;19920;-73
2022/03/04 11:28:43;;;;;;;;;;;12.20;37.70;;;;;;5055091;28;19908;-72
2022/03/04 11:31:13;;;;;;;;;;;11.30;38.30;;;;;;5052983;28;19916;-73
2022/03/04 11:33:43;;;;;;;;;;;12.00;39.00;;;;;;5054894;28;19930;-71
2022/03/04 11:36:16;;;;;;;;;;;12.00;38.90;;;;;;5053506;28;19956;-72
2022/03/04 11:38:47;;;;;;;;;;;12.50;37.30;;;;;;5053651;28;19914;-71
2022/03/04 11:41:16;;;;;;;;;;;12.80;37.50;;;;;;5049750;28;20372;-72
2022/03/04 11:43:46;;;;;;;;;;;13.40;36.80;;;;;;5054480;28;19909;-72
2022/03/04 11:46:19;;;;;;;;;;;13.20;36.40;;;;;;5054069;28;20455;-72
2022/03/04 11:48:45;;;;;;;;;;;13.20;36.20;;;;;;5054473;28;19954;-72
2022/03/04 11:51:20;;;;;;;;;;;13.20;36.40;;;;;;5053607;28;19913;-72
2022/03/04 11:54:04;;;;;;;;;;;13.70;36.10;;;;;;5052897;28;19936;-72
2022/03/04 11:56:49;;;;;;;;;;;13.60;35.50;;;;;;5049132;28;19913;-72
2022/03/04 11:59:18;;;;;;;;;;;12.90;36.80;;;;;;5054133;28;19996;-72
2022/03/04 12:01:45;;;;;;;;;;;13.30;36.30;;;;;;5053895;28;19908;-72
2022/03/04 12:04:11;;;;;;;;;;;13.30;36.30;;;;;;5054175;28;19917;-71
2022/03/04 12:06:37;;;;;;;;;;;13.80;36.40;;;;;;5053584;28;19909;-74
2022/03/04 12:09:26;;;;;;;;;;;14.30;35.30;;;;;;5053824;28;19917;-72
2022/03/04 12:12:16;;;;;;;;;;;13.40;35.00;;;;;;5053011;28;19913;-72
2022/03/04 12:14:42;;;;;;;;;;;13.70;34.50;;;;;;5049530;28;19963;-73
2022/03/04 12:17:08;;;;;;;;;;;14.20;33.80;;;;;;5034908;28;19963;-73
2022/03/04 12:19:34;;;;;;;;;;;14.40;33.40;;;;;;5052720;28;19952;-73
2022/03/04 12:22:00;;;;;;;;;;;14.20;33.50;;;;;;5053050;28;19998;-73
2022/03/04 12:24:30;;;;;;;;;;;14.40;32.20;;;;;;5054104;28;19913;-73
2022/03/04 12:26:56;;;;;;;;;;;13.90;32.40;;;;;;5053353;28;19908;-74
2022/03/04 12:29:24;;;;;;;;;;;13.70;33.90;;;;;;5054520;28;19916;-73
2022/03/04 12:31:50;;;;;;;;;;;14.10;33.20;;;;;;5054564;23;19936;-74
2022/03/04 12:34:23;;;;;;;;;;;13.80;32.50;;;;;;5033784;28;19910;-74
2022/03/04 12:36:49;;;;;;;;;;;13.50;32.80;;;;;;5032504;28;19983;-74
2022/03/04 12:39:16;;;;;;;;;;;14.10;32.30;;;;;;5034581;28;20066;-75
2022/03/04 12:41:42;;;;;;;;;;;14.70;31.40;;;;;;5025582;28;19909;-73
2022/03/04 12:44:08;;;;;;;;;;;14.70;31.80;;;;;;5042956;28;19916;-75
2022/03/04 12:46:35;;;;;;;;;;;14.20;31.00;;;;;;5032155;28;20292;-74
2022/03/04 12:49:01;;;;;;;;;;;14.30;31.50;;;;;;5049293;28;19909;-74
2022/03/04 12:51:33;;;;;;;;;;;14.00;32.00;;;;;;5052308;28;19909;-75
2022/03/04 12:54:01;;;;;;;;;;;13.90;31.60;;;;;;5053689;28;19909;-75
2022/03/04 12:56:27;;;;;;;;;;;14.10;32.00;;;;;;5034792;28;20292;-75
2022/03/04 12:58:54;;;;;;;;;;;14.10;31.30;;;;;;5033576;28;19909;-75
2022/03/04 13:01:21;;;;;;;;;;;13.50;32.10;;;;;;5032354;28;19913;-75
2022/03/04 13:03:57;;;;;;;;;;;13.10;31.90;;;;;;5032269;28;19915;-75
2022/03/04 13:06:23;;;;;;;;;;;12.40;32.80;;;;;;5032053;28;19932;-74
2022/03/04 13:08:57;;;;;;;;;;;12.40;33.40;;;;;;5031613;28;19913;-75
2022/03/04 13:11:24;;;;;;;;;;;12.50;33.00;;;;;;5015531;28;19960;-75
2022/03/04 13:13:51;;;;;;;;;;;12.50;33.10;;;;;;5033224;28;19909;-75
2022/03/04 13:16:18;;;;;;;;;;;12.30;35.00;;;;;;5032699;28;19913;-75
2022/03/04 13:18:43;;;;;;;;;;;12.70;34.00;;;;;;5031782;28;20022;-75
2022/03/04 13:21:09;;;;;;;;;;;12.60;33.70;;;;;;5031086;28;19917;-75
2022/03/04 13:23:35;;;;;;;;;;;12.50;33.80;;;;;;5032911;28;19909;-75
2022/03/04 13:26:04;;;;;;;;;;;11.50;35.00;;;;;;5015163;28;19932;-76
2022/03/04 13:28:49;;;;;;;;;;;11.30;36.20;;;;;;5031708;28;19917;-75
2022/03/04 13:31:27;;;;;;;;;;;11.00;36.70;;;;;;5032801;28;19956;-76
2022/03/04 13:33:57;;;;;;;;;;;10.70;36.50;;;;;;5031647;28;19909;-75
2022/03/04 13:36:40;;;;;;;;;;;10.40;37.60;;;;;;5032777;28;20430;-76
2022/03/04 13:39:13;;;;;;;;;;;10.20;37.20;;;;;;5033222;28;19909;-75
2022/03/04 13:41:39;;;;;;;;;;;10.00;37.20;;;;;;5031682;28;20278;-76
2022/03/04 13:44:13;;;;;;;;;;;10.00;38.30;;;;;;5032524;28;19940;-74
2022/03/04 13:46:57;;;;;;;;;;;10.00;36.70;;;;;;5032534;28;19909;-74
2022/03/04 13:49:22;;;;;;;;;;;9.60;37.30;;;;;;5032768;28;19955;-74
2022/03/04 13:52:01;;;;;;;;;;;9.90;38.50;;;;;;5032805;28;19957;-74
2022/03/04 13:54:45;;;;;;;;;;;9.80;38.70;;;;;;5030834;28;19947;-74
2022/03/04 13:57:23;;;;;;;;;;;9.80;38.60;;;;;;5032506;28;19917;-75
2022/03/04 13:59:48;;;;;;;;;;;9.70;38.70;;;;;;5032695;28;20282;-74
2022/03/04 14:02:14;;;;;;;;;;;9.40;39.00;;;;;;5032305;28;19931;-74
2022/03/04 14:04:53;;;;;;;;;;;9.20;39.10;;;;;;5032092;28;19963;-74
2022/03/04 14:07:20;;;;;;;;;;;9.20;39.20;;;;;;5030780;28;19937;-74
2022/03/04 14:09:49;;;;;;;;;;;9.10;38.90;;;;;;5032454;28;19932;-74
2022/03/04 14:12:14;;;;;;;;;;;9.30;38.90;;;;;;5032403;28;19999;-74
2022/03/04 14:14:40;;;;;;;;;;;9.40;39.20;;;;;;5032447;28;19945;-74
2022/03/04 14:17:07;;;;;;;;;;;9.10;38.80;;;;;;5032227;28;20448;-74
2022/03/04 14:19:33;;;;;;;;;;;8.80;38.60;;;;;;5032450;28;19948;-74
2022/03/04 14:21:59;;;;;;;;;;;8.60;39.50;;;;;;5032453;28;19949;-74
2022/03/04 14:24:24;;;;;;;;;;;8.70;40.30;;;;;;5014518;28;19913;-74
2022/03/04 14:26:50;;;;;;;;;;;8.80;40.50;;;;;;5030557;28;20280;-75
2022/03/04 14:29:20;;;;;;;;;;;8.80;40.70;;;;;;5032424;28;19909;-74
2022/03/04 14:31:47;;;;;;;;;;;8.80;40.60;;;;;;5033045;28;19971;-74
2022/03/04 14:34:12;;;;;;;;;;;8.80;40.80;;;;;;5036082;28;19909;-74